sensor_id;sensor_type;location;lat;lon;timestamp;P1;durP1;ratioP1;P2;durP2;ratioP2
27025;SDS011;14565;48.626;8.978;2023-04-25T00:01:36;4.22;;;2.20;;
27025;SDS011;14565;48.626;8.978;2023-04-25T00:04:02;6.78;;;2.63;;
27025;SDS011;14565;48.626;8.978;2023-04-25T00:06:28;6.22;;;2.58;;
27025;SDS011;14565;48.626;8.978;2023-04-25T00:08:55;4.32;;;2.42;;
27025;SDS011;14565;48.626;8.978;2023-04-25T00:11:21;5.35;;;2.42;;
27025;SDS011;14565;48.626;8.978;2023-04-25T00:13:47;3.58;;;2.13;;
27025;SDS011;14565;48.626;8.978;2023-04-25T00:16:14;4.97;;;2.40;;
27025;SDS011;14565;48.626;8.978;2023-04-25T00:18:41;3.17;;;2.20;;
27025;SDS011;14565;48.626;8.978;2023-04-25T00:21:07;3.80;;;2.50;;
27025;SDS011;14565;48.626;8.978;2023-04-25T00:23:33;3.03;;;2.47;;
27025;SDS011;14565;48.626;8.978;2023-04-25T00:26:01;4.72;;;2.15;;
27025;SDS011;14565;48.626;8.978;2023-04-25T00:28:27;4.25;;;2.22;;
27025;SDS011;14565;48.626;8.978;2023-04-25T00:30:53;4.47;;;2.13;;
27025;SDS011;14565;48.626;8.978;2023-04-25T00:33:18;4.38;;;1.90;;
27025;SDS011;14565;48.626;8.978;2023-04-25T00:35:44;5.57;;;2.15;;
27025;SDS011;14565;48.626;8.978;2023-04-25T00:38:09;4.68;;;2.17;;
27025;SDS011;14565;48.626;8.978;2023-04-25T00:40:35;5.03;;;2.20;;
27025;SDS011;14565;48.626;8.978;2023-04-25T00:43:01;2.95;;;1.90;;
27025;SDS011;14565;48.626;8.978;2023-04-25T00:45:27;4.18;;;2.60;;
27025;SDS011;14565;48.626;8.978;2023-04-25T00:47:54;3.90;;;2.28;;
27025;SDS011;14565;48.626;8.978;2023-04-25T00:50:20;5.30;;;2.47;;
27025;SDS011;14565;48.626;8.978;2023-04-25T00:52:46;3.58;;;2.10;;
27025;SDS011;14565;48.626;8.978;2023-04-25T00:55:12;3.35;;;2.28;;
27025;SDS011;14565;48.626;8.978;2023-04-25T00:57:38;3.25;;;2.10;;
27025;SDS011;14565;48.626;8.978;2023-04-25T01:00:06;3.40;;;2.45;;
27025;SDS011;14565;48.626;8.978;2023-04-25T01:02:34;3.72;;;2.35;;
27025;SDS011;14565;48.626;8.978;2023-04-25T01:05:00;4.40;;;2.35;;
27025;SDS011;14565;48.626;8.978;2023-04-25T01:07:27;4.22;;;2.72;;
27025;SDS011;14565;48.626;8.978;2023-04-25T01:09:55;7.68;;;2.88;;
27025;SDS011;14565;48.626;8.978;2023-04-25T01:12:21;5.50;;;2.90;;
27025;SDS011;14565;48.626;8.978;2023-04-25T01:14:47;6.88;;;3.22;;
27025;SDS011;14565;48.626;8.978;2023-04-25T01:17:12;8.13;;;3.75;;
27025;SDS011;14565;48.626;8.978;2023-04-25T01:19:38;8.27;;;3.40;;
27025;SDS011;14565;48.626;8.978;2023-04-25T01:22:04;4.78;;;3.47;;
27025;SDS011;14565;48.626;8.978;2023-04-25T01:24:33;6.50;;;3.55;;
27025;SDS011;14565;48.626;8.978;2023-04-25T01:27:02;6.57;;;3.50;;
27025;SDS011;14565;48.626;8.978;2023-04-25T01:29:28;7.25;;;3.28;;
27025;SDS011;14565;48.626;8.978;2023-04-25T01:31:54;6.47;;;3.28;;
27025;SDS011;14565;48.626;8.978;2023-04-25T01:34:20;6.25;;;3.80;;
27025;SDS011;14565;48.626;8.978;2023-04-25T01:36:47;4.20;;;3.40;;
27025;SDS011;14565;48.626;8.978;2023-04-25T01:39:15;5.38;;;3.40;;
27025;SDS011;14565;48.626;8.978;2023-04-25T01:41:41;4.30;;;3.17;;
27025;SDS011;14565;48.626;8.978;2023-04-25T01:44:08;8.20;;;3.10;;
27025;SDS011;14565;48.626;8.978;2023-04-25T01:46:33;5.80;;;3.08;;
27025;SDS011;14565;48.626;8.978;2023-04-25T01:48:59;5.68;;;3.30;;
27025;SDS011;14565;48.626;8.978;2023-04-25T01:51:25;5.10;;;3.67;;
27025;SDS011;14565;48.626;8.978;2023-04-25T01:53:51;5.10;;;3.35;;
27025;SDS011;14565;48.626;8.978;2023-04-25T01:56:17;5.40;;;3.35;;
27025;SDS011;14565;48.626;8.978;2023-04-25T01:58:43;4.20;;;3.10;;
27025;SDS011;14565;48.626;8.978;2023-04-25T02:01:09;5.38;;;2.90;;
27025;SDS011;14565;48.626;8.978;2023-04-25T02:03:35;4.28;;;2.55;;
27025;SDS011;14565;48.626;8.978;2023-04-25T02:06:01;6.82;;;2.60;;
27025;SDS011;14565;48.626;8.978;2023-04-25T02:08:26;8.20;;;2.53;;
27025;SDS011;14565;48.626;8.978;2023-04-25T02:10:52;6.55;;;2.60;;
27025;SDS011;14565;48.626;8.978;2023-04-25T02:13:18;4.80;;;2.47;;
27025;SDS011;14565;48.626;8.978;2023-04-25T02:15:43;4.32;;;2.28;;
27025;SDS011;14565;48.626;8.978;2023-04-25T02:18:09;6.78;;;2.55;;
27025;SDS011;14565;48.626;8.978;2023-04-25T02:20:35;4.65;;;2.70;;
27025;SDS011;14565;48.626;8.978;2023-04-25T02:23:02;6.55;;;2.90;;
27025;SDS011;14565;48.626;8.978;2023-04-25T02:25:28;5.45;;;2.63;;
27025;SDS011;14565;48.626;8.978;2023-04-25T02:27:54;5.82;;;2.58;;
27025;SDS011;14565;48.626;8.978;2023-04-25T02:30:19;6.40;;;2.70;;
27025;SDS011;14565;48.626;8.978;2023-04-25T02:32:45;4.90;;;2.60;;
27025;SDS011;14565;48.626;8.978;2023-04-25T02:35:11;6.05;;;2.72;;
27025;SDS011;14565;48.626;8.978;2023-04-25T02:37:37;3.67;;;2.22;;
27025;SDS011;14565;48.626;8.978;2023-04-25T02:40:04;3.88;;;2.67;;
27025;SDS011;14565;48.626;8.978;2023-04-25T02:42:30;5.50;;;2.80;;
27025;SDS011;14565;48.626;8.978;2023-04-25T02:44:56;4.35;;;3.13;;
27025;SDS011;14565;48.626;8.978;2023-04-25T02:47:22;5.05;;;3.00;;
27025;SDS011;14565;48.626;8.978;2023-04-25T02:49:48;4.47;;;2.75;;
27025;SDS011;14565;48.626;8.978;2023-04-25T02:52:13;5.38;;;2.70;;
27025;SDS011;14565;48.626;8.978;2023-04-25T02:54:42;6.25;;;2.45;;
27025;SDS011;14565;48.626;8.978;2023-04-25T02:57:08;4.55;;;2.40;;
27025;SDS011;14565;48.626;8.978;2023-04-25T02:59:33;4.03;;;2.75;;
27025;SDS011;14565;48.626;8.978;2023-04-25T03:01:59;6.45;;;2.70;;
27025;SDS011;14565;48.626;8.978;2023-04-25T03:04:26;6.13;;;2.95;;
27025;SDS011;14565;48.626;8.978;2023-04-25T03:06:51;4.55;;;2.63;;
27025;SDS011;14565;48.626;8.978;2023-04-25T03:09:18;3.75;;;2.20;;
27025;SDS011;14565;48.626;8.978;2023-04-25T03:11:44;2.50;;;2.08;;
27025;SDS011;14565;48.626;8.978;2023-04-25T03:14:10;3.40;;;2.25;;
27025;SDS011;14565;48.626;8.978;2023-04-25T03:16:36;4.85;;;2.60;;
27025;SDS011;14565;48.626;8.978;2023-04-25T03:19:02;10.25;;;2.47;;
27025;SDS011;14565;48.626;8.978;2023-04-25T03:21:28;5.03;;;2.28;;
27025;SDS011;14565;48.626;8.978;2023-04-25T03:23:56;5.07;;;2.40;;
27025;SDS011;14565;48.626;8.978;2023-04-25T03:26:22;4.15;;;2.42;;
27025;SDS011;14565;48.626;8.978;2023-04-25T03:28:47;3.60;;;2.05;;
27025;SDS011;14565;48.626;8.978;2023-04-25T03:31:13;3.75;;;2.58;;
27025;SDS011;14565;48.626;8.978;2023-04-25T03:33:39;5.32;;;2.53;;
27025;SDS011;14565;48.626;8.978;2023-04-25T03:36:05;4.85;;;2.15;;
27025;SDS011;14565;48.626;8.978;2023-04-25T03:38:31;5.30;;;2.60;;
27025;SDS011;14565;48.626;8.978;2023-04-25T03:40:57;4.15;;;2.60;;
27025;SDS011;14565;48.626;8.978;2023-04-25T03:43:22;5.88;;;2.53;;
27025;SDS011;14565;48.626;8.978;2023-04-25T03:45:48;6.82;;;2.72;;
27025;SDS011;14565;48.626;8.978;2023-04-25T03:48:14;6.68;;;2.83;;
27025;SDS011;14565;48.626;8.978;2023-04-25T03:50:40;4.85;;;2.63;;
27025;SDS011;14565;48.626;8.978;2023-04-25T03:53:05;6.75;;;3.15;;
27025;SDS011;14565;48.626;8.978;2023-04-25T03:55:31;5.40;;;3.10;;
27025;SDS011;14565;48.626;8.978;2023-04-25T03:57:57;7.15;;;3.17;;
27025;SDS011;14565;48.626;8.978;2023-04-25T04:00:23;6.22;;;3.17;;
27025;SDS011;14565;48.626;8.978;2023-04-25T04:02:49;6.95;;;3.50;;
27025;SDS011;14565;48.626;8.978;2023-04-25T04:05:15;7.43;;;3.60;;
27025;SDS011;14565;48.626;8.978;2023-04-25T04:07:41;5.95;;;3.58;;
27025;SDS011;14565;48.626;8.978;2023-04-25T04:10:10;7.20;;;3.70;;
27025;SDS011;14565;48.626;8.978;2023-04-25T04:12:37;6.47;;;3.53;;
27025;SDS011;14565;48.626;8.978;2023-04-25T04:15:03;7.53;;;3.83;;
27025;SDS011;14565;48.626;8.978;2023-04-25T04:17:30;5.78;;;3.42;;
27025;SDS011;14565;48.626;8.978;2023-04-25T04:19:55;5.35;;;3.42;;
27025;SDS011;14565;48.626;8.978;2023-04-25T04:22:21;6.68;;;3.72;;
27025;SDS011;14565;48.626;8.978;2023-04-25T04:24:47;6.38;;;3.58;;
27025;SDS011;14565;48.626;8.978;2023-04-25T04:27:14;8.17;;;4.50;;
27025;SDS011;14565;48.626;8.978;2023-04-25T04:32:08;8.15;;;3.60;;
27025;SDS011;14565;48.626;8.978;2023-04-25T04:34:34;6.13;;;3.83;;
27025;SDS011;14565;48.626;8.978;2023-04-25T04:37:05;6.25;;;3.25;;
27025;SDS011;14565;48.626;8.978;2023-04-25T04:39:32;7.32;;;3.35;;
27025;SDS011;14565;48.626;8.978;2023-04-25T04:41:58;6.72;;;3.67;;
27025;SDS011;14565;48.626;8.978;2023-04-25T04:44:24;7.35;;;3.28;;
27025;SDS011;14565;48.626;8.978;2023-04-25T04:46:53;8.25;;;3.83;;
27025;SDS011;14565;48.626;8.978;2023-04-25T04:49:19;8.10;;;3.22;;
27025;SDS011;14565;48.626;8.978;2023-04-25T04:51:46;7.70;;;3.50;;
27025;SDS011;14565;48.626;8.978;2023-04-25T04:54:12;6.13;;;3.10;;
27025;SDS011;14565;48.626;8.978;2023-04-25T04:56:38;7.88;;;3.60;;
27025;SDS011;14565;48.626;8.978;2023-04-25T04:59:04;6.20;;;2.83;;
27025;SDS011;14565;48.626;8.978;2023-04-25T05:01:30;5.18;;;3.10;;
27025;SDS011;14565;48.626;8.978;2023-04-25T05:03:56;8.15;;;3.00;;
27025;SDS011;14565;48.626;8.978;2023-04-25T05:06:25;6.82;;;3.63;;
27025;SDS011;14565;48.626;8.978;2023-04-25T05:08:52;6.53;;;3.90;;
27025;SDS011;14565;48.626;8.978;2023-04-25T05:11:18;8.68;;;4.32;;
27025;SDS011;14565;48.626;8.978;2023-04-25T05:13:44;8.45;;;4.45;;
27025;SDS011;14565;48.626;8.978;2023-04-25T05:16:13;5.75;;;3.75;;
27025;SDS011;14565;48.626;8.978;2023-04-25T05:18:42;6.47;;;3.40;;
27025;SDS011;14565;48.626;8.978;2023-04-25T05:21:07;7.20;;;4.10;;
27025;SDS011;14565;48.626;8.978;2023-04-25T05:23:33;6.55;;;3.80;;
27025;SDS011;14565;48.626;8.978;2023-04-25T05:25:59;9.18;;;3.95;;
27025;SDS011;14565;48.626;8.978;2023-04-25T05:28:25;11.35;;;4.47;;
27025;SDS011;14565;48.626;8.978;2023-04-25T05:30:51;7.00;;;3.75;;
27025;SDS011;14565;48.626;8.978;2023-04-25T05:33:17;7.93;;;3.65;;
27025;SDS011;14565;48.626;8.978;2023-04-25T05:35:43;6.10;;;4.28;;
27025;SDS011;14565;48.626;8.978;2023-04-25T05:38:08;6.57;;;3.85;;
27025;SDS011;14565;48.626;8.978;2023-04-25T05:40:34;6.35;;;4.57;;
27025;SDS011;14565;48.626;8.978;2023-04-25T05:43:03;8.82;;;4.13;;
27025;SDS011;14565;48.626;8.978;2023-04-25T05:45:28;7.30;;;4.28;;
27025;SDS011;14565;48.626;8.978;2023-04-25T05:47:54;7.38;;;4.10;;
27025;SDS011;14565;48.626;8.978;2023-04-25T05:50:20;8.25;;;4.00;;
27025;SDS011;14565;48.626;8.978;2023-04-25T05:52:46;6.97;;;2.83;;
27025;SDS011;14565;48.626;8.978;2023-04-25T05:55:11;5.90;;;3.25;;
27025;SDS011;14565;48.626;8.978;2023-04-25T05:57:38;5.93;;;3.67;;
27025;SDS011;14565;48.626;8.978;2023-04-25T06:00:09;8.30;;;3.38;;
27025;SDS011;14565;48.626;8.978;2023-04-25T06:02:36;4.75;;;3.17;;
27025;SDS011;14565;48.626;8.978;2023-04-25T06:05:02;6.82;;;3.80;;
27025;SDS011;14565;48.626;8.978;2023-04-25T06:07:28;6.60;;;3.75;;
27025;SDS011;14565;48.626;8.978;2023-04-25T06:09:57;5.45;;;3.60;;
27025;SDS011;14565;48.626;8.978;2023-04-25T06:12:26;5.45;;;2.75;;
27025;SDS011;14565;48.626;8.978;2023-04-25T06:14:52;4.75;;;2.55;;
27025;SDS011;14565;48.626;8.978;2023-04-25T06:17:17;4.40;;;2.42;;
27025;SDS011;14565;48.626;8.978;2023-04-25T06:19:43;4.50;;;2.80;;
27025;SDS011;14565;48.626;8.978;2023-04-25T06:22:08;5.80;;;2.60;;
27025;SDS011;14565;48.626;8.978;2023-04-25T06:24:35;7.10;;;3.10;;
27025;SDS011;14565;48.626;8.978;2023-04-25T06:27:00;7.70;;;2.65;;
27025;SDS011;14565;48.626;8.978;2023-04-25T06:29:26;4.50;;;2.90;;
27025;SDS011;14565;48.626;8.978;2023-04-25T06:31:52;8.90;;;3.30;;
27025;SDS011;14565;48.626;8.978;2023-04-25T06:34:17;8.63;;;3.63;;
27025;SDS011;14565;48.626;8.978;2023-04-25T06:36:43;6.32;;;3.78;;
27025;SDS011;14565;48.626;8.978;2023-04-25T06:39:09;8.43;;;4.00;;
27025;SDS011;14565;48.626;8.978;2023-04-25T06:41:35;8.93;;;3.80;;
27025;SDS011;14565;48.626;8.978;2023-04-25T06:44:01;5.50;;;3.60;;
27025;SDS011;14565;48.626;8.978;2023-04-25T06:46:27;6.05;;;3.30;;
27025;SDS011;14565;48.626;8.978;2023-04-25T06:48:53;6.25;;;3.20;;
27025;SDS011;14565;48.626;8.978;2023-04-25T06:51:18;6.50;;;3.67;;
27025;SDS011;14565;48.626;8.978;2023-04-25T06:53:44;7.50;;;4.05;;
27025;SDS011;14565;48.626;8.978;2023-04-25T06:56:10;11.05;;;3.92;;
27025;SDS011;14565;48.626;8.978;2023-04-25T06:58:35;6.07;;;4.00;;
27025;SDS011;14565;48.626;8.978;2023-04-25T07:01:01;9.60;;;4.50;;
27025;SDS011;14565;48.626;8.978;2023-04-25T07:03:27;7.13;;;4.80;;
27025;SDS011;14565;48.626;8.978;2023-04-25T07:05:53;7.90;;;4.85;;
27025;SDS011;14565;48.626;8.978;2023-04-25T07:08:18;8.57;;;5.07;;
27025;SDS011;14565;48.626;8.978;2023-04-25T07:10:45;10.00;;;6.03;;
27025;SDS011;14565;48.626;8.978;2023-04-25T07:13:11;11.82;;;6.38;;
27025;SDS011;14565;48.626;8.978;2023-04-25T07:15:36;8.68;;;5.43;;
27025;SDS011;14565;48.626;8.978;2023-04-25T07:18:02;12.05;;;5.93;;
27025;SDS011;14565;48.626;8.978;2023-04-25T07:20:28;10.88;;;5.75;;
27025;SDS011;14565;48.626;8.978;2023-04-25T07:22:55;9.65;;;6.32;;
27025;SDS011;14565;48.626;8.978;2023-04-25T07:25:22;13.13;;;6.05;;
27025;SDS011;14565;48.626;8.978;2023-04-25T07:27:47;9.68;;;6.15;;
27025;SDS011;14565;48.626;8.978;2023-04-25T07:30:13;11.45;;;6.70;;
27025;SDS011;14565;48.626;8.978;2023-04-25T07:32:39;10.35;;;6.40;;
27025;SDS011;14565;48.626;8.978;2023-04-25T07:35:05;10.05;;;6.63;;
27025;SDS011;14565;48.626;8.978;2023-04-25T07:37:32;7.80;;;6.07;;
27025;SDS011;14565;48.626;8.978;2023-04-25T07:39:58;11.45;;;6.75;;
27025;SDS011;14565;48.626;8.978;2023-04-25T07:42:25;11.95;;;6.70;;
27025;SDS011;14565;48.626;8.978;2023-04-25T07:44:51;10.68;;;7.20;;
27025;SDS011;14565;48.626;8.978;2023-04-25T07:47:17;13.23;;;7.30;;
27025;SDS011;14565;48.626;8.978;2023-04-25T07:49:44;13.13;;;7.78;;
27025;SDS011;14565;48.626;8.978;2023-04-25T07:52:10;10.77;;;7.40;;
27025;SDS011;14565;48.626;8.978;2023-04-25T07:54:36;14.05;;;8.18;;
27025;SDS011;14565;48.626;8.978;2023-04-25T07:57:02;16.42;;;7.97;;
27025;SDS011;14565;48.626;8.978;2023-04-25T07:59:28;12.13;;;7.75;;
27025;SDS011;14565;48.626;8.978;2023-04-25T08:01:53;9.88;;;7.80;;
27025;SDS011;14565;48.626;8.978;2023-04-25T08:04:19;13.88;;;7.68;;
27025;SDS011;14565;48.626;8.978;2023-04-25T08:06:45;10.77;;;6.95;;
27025;SDS011;14565;48.626;8.978;2023-04-25T08:09:11;9.65;;;7.20;;
27025;SDS011;14565;48.626;8.978;2023-04-25T08:11:37;10.13;;;5.75;;
27025;SDS011;14565;48.626;8.978;2023-04-25T08:14:03;8.27;;;6.10;;
27025;SDS011;14565;48.626;8.978;2023-04-25T08:16:28;9.18;;;6.65;;
27025;SDS011;14565;48.626;8.978;2023-04-25T08:18:55;10.25;;;7.18;;
27025;SDS011;14565;48.626;8.978;2023-04-25T08:21:20;9.07;;;5.45;;
27025;SDS011;14565;48.626;8.978;2023-04-25T08:23:46;8.15;;;4.90;;
27025;SDS011;14565;48.626;8.978;2023-04-25T08:26:12;8.35;;;5.75;;
27025;SDS011;14565;48.626;8.978;2023-04-25T08:28:41;10.15;;;7.57;;
27025;SDS011;14565;48.626;8.978;2023-04-25T08:31:06;9.32;;;5.68;;
27025;SDS011;14565;48.626;8.978;2023-04-25T08:33:32;9.40;;;6.15;;
27025;SDS011;14565;48.626;8.978;2023-04-25T08:35:58;10.10;;;7.25;;
27025;SDS011;14565;48.626;8.978;2023-04-25T08:38:24;9.32;;;6.85;;
27025;SDS011;14565;48.626;8.978;2023-04-25T08:40:50;15.77;;;9.75;;
27025;SDS011;14565;48.626;8.978;2023-04-25T08:43:19;16.05;;;9.18;;
27025;SDS011;14565;48.626;8.978;2023-04-25T08:45:45;10.23;;;7.35;;
27025;SDS011;14565;48.626;8.978;2023-04-25T08:48:12;11.10;;;7.00;;
27025;SDS011;14565;48.626;8.978;2023-04-25T08:50:40;11.38;;;8.13;;
27025;SDS011;14565;48.626;8.978;2023-04-25T08:53:16;11.07;;;7.88;;
27025;SDS011;14565;48.626;8.978;2023-04-25T08:55:46;12.15;;;7.47;;
27025;SDS011;14565;48.626;8.978;2023-04-25T08:58:12;11.18;;;7.93;;
27025;SDS011;14565;48.626;8.978;2023-04-25T09:00:39;10.73;;;8.00;;
27025;SDS011;14565;48.626;8.978;2023-04-25T09:03:05;12.63;;;8.63;;
27025;SDS011;14565;48.626;8.978;2023-04-25T09:05:32;12.93;;;9.82;;
27025;SDS011;14565;48.626;8.978;2023-04-25T09:07:59;9.82;;;7.70;;
27025;SDS011;14565;48.626;8.978;2023-04-25T09:10:26;9.45;;;7.00;;
27025;SDS011;14565;48.626;8.978;2023-04-25T09:13:11;10.65;;;7.65;;
27025;SDS011;14565;48.626;8.978;2023-04-25T09:18:21;7.47;;;5.40;;
27025;SDS011;14565;48.626;8.978;2023-04-25T09:20:47;5.60;;;3.88;;
27025;SDS011;14565;48.626;8.978;2023-04-25T09:23:14;6.47;;;3.88;;
27025;SDS011;14565;48.626;8.978;2023-04-25T09:25:40;9.95;;;7.57;;
27025;SDS011;14565;48.626;8.978;2023-04-25T09:28:08;13.43;;;8.88;;
27025;SDS011;14565;48.626;8.978;2023-04-25T09:30:34;10.32;;;7.78;;
27025;SDS011;14565;48.626;8.978;2023-04-25T09:33:05;7.97;;;4.80;;
27025;SDS011;14565;48.626;8.978;2023-04-25T09:35:39;5.78;;;4.53;;
27025;SDS011;14565;48.626;8.978;2023-04-25T09:40:39;3.45;;;2.95;;
27025;SDS011;14565;48.626;8.978;2023-04-25T09:43:10;4.88;;;2.90;;
27025;SDS011;14565;48.626;8.978;2023-04-25T09:45:48;4.85;;;3.08;;
27025;SDS011;14565;48.626;8.978;2023-04-25T09:48:20;2.47;;;2.00;;
27025;SDS011;14565;48.626;8.978;2023-04-25T09:53:36;3.75;;;2.22;;
27025;SDS011;14565;48.626;8.978;2023-04-25T09:56:05;1.20;;;1.05;;
27025;SDS011;14565;48.626;8.978;2023-04-25T09:58:33;2.50;;;1.58;;
27025;SDS011;14565;48.626;8.978;2023-04-25T10:01:01;2.25;;;1.67;;
27025;SDS011;14565;48.626;8.978;2023-04-25T10:03:29;1.17;;;1.08;;
27025;SDS011;14565;48.626;8.978;2023-04-25T10:05:59;1.98;;;1.40;;
27025;SDS011;14565;48.626;8.978;2023-04-25T10:08:31;1.88;;;1.50;;
27025;SDS011;14565;48.626;8.978;2023-04-25T10:11:05;3.83;;;1.50;;
27025;SDS011;14565;48.626;8.978;2023-04-25T10:13:33;2.63;;;1.55;;
27025;SDS011;14565;48.626;8.978;2023-04-25T10:16:04;1.23;;;0.80;;
27025;SDS011;14565;48.626;8.978;2023-04-25T10:18:32;1.05;;;0.88;;
27025;SDS011;14565;48.626;8.978;2023-04-25T10:20:59;1.85;;;0.70;;
27025;SDS011;14565;48.626;8.978;2023-04-25T10:23:25;1.05;;;0.80;;
27025;SDS011;14565;48.626;8.978;2023-04-25T10:25:52;1.02;;;0.70;;
27025;SDS011;14565;48.626;8.978;2023-04-25T10:28:19;1.45;;;0.85;;
27025;SDS011;14565;48.626;8.978;2023-04-25T10:36:08;0.55;;;0.50;;
27025;SDS011;14565;48.626;8.978;2023-04-25T10:38:34;0.40;;;0.40;;
27025;SDS011;14565;48.626;8.978;2023-04-25T10:41:05;0.73;;;0.55;;
27025;SDS011;14565;48.626;8.978;2023-04-25T10:43:42;1.90;;;0.60;;
27025;SDS011;14565;48.626;8.978;2023-04-25T10:46:28;0.40;;;0.40;;
27025;SDS011;14565;48.626;8.978;2023-04-25T10:48:57;0.65;;;0.50;;
27025;SDS011;14565;48.626;8.978;2023-04-25T11:02:11;0.77;;;0.70;;
27025;SDS011;14565;48.626;8.978;2023-04-25T11:04:37;2.00;;;0.75;;
27025;SDS011;14565;48.626;8.978;2023-04-25T11:09:55;1.00;;;0.82;;
27025;SDS011;14565;48.626;8.978;2023-04-25T11:12:21;5.30;;;0.80;;
27025;SDS011;14565;48.626;8.978;2023-04-25T11:14:49;2.08;;;0.52;;
27025;SDS011;14565;48.626;8.978;2023-04-25T11:17:15;0.68;;;0.60;;
27025;SDS011;14565;48.626;8.978;2023-04-25T11:19:41;0.80;;;0.80;;
27025;SDS011;14565;48.626;8.978;2023-04-25T11:22:06;0.50;;;0.50;;
27025;SDS011;14565;48.626;8.978;2023-04-25T11:24:35;0.85;;;0.60;;
27025;SDS011;14565;48.626;8.978;2023-04-25T11:27:02;1.38;;;1.00;;
27025;SDS011;14565;48.626;8.978;2023-04-25T11:29:32;0.95;;;0.60;;
27025;SDS011;14565;48.626;8.978;2023-04-25T11:31:59;1.15;;;0.63;;
27025;SDS011;14565;48.626;8.978;2023-04-25T11:34:28;1.60;;;1.10;;
27025;SDS011;14565;48.626;8.978;2023-04-25T11:37:01;0.90;;;0.77;;
27025;SDS011;14565;48.626;8.978;2023-04-25T11:39:27;0.80;;;0.70;;
27025;SDS011;14565;48.626;8.978;2023-04-25T11:41:54;0.65;;;0.60;;
27025;SDS011;14565;48.626;8.978;2023-04-25T11:44:28;0.77;;;0.77;;
27025;SDS011;14565;48.626;8.978;2023-04-25T11:46:58;1.17;;;0.80;;
27025;SDS011;14565;48.626;8.978;2023-04-25T11:49:24;0.93;;;0.60;;
27025;SDS011;14565;48.626;8.978;2023-04-25T11:51:56;2.50;;;1.38;;
27025;SDS011;14565;48.626;8.978;2023-04-25T11:54:22;1.50;;;1.35;;
27025;SDS011;14565;48.626;8.978;2023-04-25T11:56:48;2.53;;;1.50;;
27025;SDS011;14565;48.626;8.978;2023-04-25T11:59:14;1.50;;;1.40;;
27025;SDS011;14565;48.626;8.978;2023-04-25T12:01:49;3.25;;;1.95;;
27025;SDS011;14565;48.626;8.978;2023-04-25T12:04:16;2.30;;;1.90;;
27025;SDS011;14565;48.626;8.978;2023-04-25T12:06:42;3.00;;;2.30;;
27025;SDS011;14565;48.626;8.978;2023-04-25T12:09:11;3.83;;;2.95;;
27025;SDS011;14565;48.626;8.978;2023-04-25T12:11:43;3.25;;;2.53;;
27025;SDS011;14565;48.626;8.978;2023-04-25T12:14:09;3.30;;;2.78;;
27025;SDS011;14565;48.626;8.978;2023-04-25T12:16:45;5.28;;;2.85;;
27025;SDS011;14565;48.626;8.978;2023-04-25T12:19:19;3.28;;;2.85;;
27025;SDS011;14565;48.626;8.978;2023-04-25T12:21:45;5.97;;;3.13;;
27025;SDS011;14565;48.626;8.978;2023-04-25T12:26:47;7.00;;;3.60;;
27025;SDS011;14565;48.626;8.978;2023-04-25T12:29:17;9.90;;;4.70;;
27025;SDS011;14565;48.626;8.978;2023-04-25T12:31:47;5.00;;;4.07;;
27025;SDS011;14565;48.626;8.978;2023-04-25T12:34:13;4.68;;;3.90;;
27025;SDS011;14565;48.626;8.978;2023-04-25T12:36:39;3.92;;;3.33;;
27025;SDS011;14565;48.626;8.978;2023-04-25T12:39:05;4.22;;;2.83;;
27025;SDS011;14565;48.626;8.978;2023-04-25T12:41:31;4.70;;;3.55;;
27025;SDS011;14565;48.626;8.978;2023-04-25T12:43:57;3.88;;;3.15;;
27025;SDS011;14565;48.626;8.978;2023-04-25T12:46:23;3.50;;;3.15;;
27025;SDS011;14565;48.626;8.978;2023-04-25T12:48:49;4.45;;;3.50;;
27025;SDS011;14565;48.626;8.978;2023-04-25T12:51:15;3.67;;;3.15;;
27025;SDS011;14565;48.626;8.978;2023-04-25T12:53:41;3.33;;;2.90;;
27025;SDS011;14565;48.626;8.978;2023-04-25T12:56:07;4.07;;;3.22;;
27025;SDS011;14565;48.626;8.978;2023-04-25T12:58:33;4.57;;;3.33;;
27025;SDS011;14565;48.626;8.978;2023-04-25T13:00:59;3.50;;;2.92;;
27025;SDS011;14565;48.626;8.978;2023-04-25T13:03:24;4.05;;;2.88;;
27025;SDS011;14565;48.626;8.978;2023-04-25T13:05:50;4.32;;;2.58;;
27025;SDS011;14565;48.626;8.978;2023-04-25T13:08:18;5.85;;;3.28;;
27025;SDS011;14565;48.626;8.978;2023-04-25T13:10:44;3.92;;;2.92;;
27025;SDS011;14565;48.626;8.978;2023-04-25T13:13:10;4.22;;;2.97;;
27025;SDS011;14565;48.626;8.978;2023-04-25T13:15:35;4.65;;;2.78;;
27025;SDS011;14565;48.626;8.978;2023-04-25T13:18:02;5.57;;;4.00;;
27025;SDS011;14565;48.626;8.978;2023-04-25T13:20:29;4.30;;;3.80;;
27025;SDS011;14565;48.626;8.978;2023-04-25T13:22:54;3.88;;;3.28;;
27025;SDS011;14565;48.626;8.978;2023-04-25T13:25:20;5.90;;;3.35;;
27025;SDS011;14565;48.626;8.978;2023-04-25T13:27:47;7.65;;;4.63;;
27025;SDS011;14565;48.626;8.978;2023-04-25T13:30:12;5.97;;;3.65;;
27025;SDS011;14565;48.626;8.978;2023-04-25T13:32:38;5.65;;;3.70;;
27025;SDS011;14565;48.626;8.978;2023-04-25T13:35:11;4.32;;;3.15;;
27025;SDS011;14565;48.626;8.978;2023-04-25T13:37:41;5.65;;;4.30;;
27025;SDS011;14565;48.626;8.978;2023-04-25T13:40:08;7.22;;;4.35;;
27025;SDS011;14565;48.626;8.978;2023-04-25T13:42:36;6.47;;;3.97;;
27025;SDS011;14565;48.626;8.978;2023-04-25T13:45:06;7.82;;;4.93;;
27025;SDS011;14565;48.626;8.978;2023-04-25T13:47:33;8.15;;;5.28;;
27025;SDS011;14565;48.626;8.978;2023-04-25T13:50:06;6.80;;;4.88;;
27025;SDS011;14565;48.626;8.978;2023-04-25T13:52:32;9.65;;;5.53;;
27025;SDS011;14565;48.626;8.978;2023-04-25T13:54:58;10.32;;;5.80;;
27025;SDS011;14565;48.626;8.978;2023-04-25T13:57:35;8.23;;;6.78;;
27025;SDS011;14565;48.626;8.978;2023-04-25T14:00:04;7.50;;;4.80;;
27025;SDS011;14565;48.626;8.978;2023-04-25T14:02:39;8.73;;;5.85;;
27025;SDS011;14565;48.626;8.978;2023-04-25T14:05:05;5.70;;;4.57;;
27025;SDS011;14565;48.626;8.978;2023-04-25T14:07:37;4.93;;;3.72;;
27025;SDS011;14565;48.626;8.978;2023-04-25T14:10:03;5.35;;;4.10;;
27025;SDS011;14565;48.626;8.978;2023-04-25T14:12:40;8.35;;;5.32;;
27025;SDS011;14565;48.626;8.978;2023-04-25T14:15:06;6.50;;;4.80;;
27025;SDS011;14565;48.626;8.978;2023-04-25T14:17:32;9.80;;;6.95;;
27025;SDS011;14565;48.626;8.978;2023-04-25T14:19:58;6.63;;;4.63;;
27025;SDS011;14565;48.626;8.978;2023-04-25T14:22:23;6.70;;;5.00;;
27025;SDS011;14565;48.626;8.978;2023-04-25T14:24:52;6.13;;;4.65;;
27025;SDS011;14565;48.626;8.978;2023-04-25T14:27:21;7.05;;;4.82;;
27025;SDS011;14565;48.626;8.978;2023-04-25T14:29:46;7.93;;;5.03;;
27025;SDS011;14565;48.626;8.978;2023-04-25T14:32:12;7.80;;;6.03;;
27025;SDS011;14565;48.626;8.978;2023-04-25T14:34:38;9.25;;;5.18;;
27025;SDS011;14565;48.626;8.978;2023-04-25T14:37:04;9.68;;;5.78;;
27025;SDS011;14565;48.626;8.978;2023-04-25T14:39:30;5.55;;;4.13;;
27025;SDS011;14565;48.626;8.978;2023-04-25T14:42:12;6.47;;;4.43;;
27025;SDS011;14565;48.626;8.978;2023-04-25T14:44:45;6.03;;;4.75;;
27025;SDS011;14565;48.626;8.978;2023-04-25T14:47:11;5.18;;;4.07;;
27025;SDS011;14565;48.626;8.978;2023-04-25T14:49:43;4.57;;;4.05;;
27025;SDS011;14565;48.626;8.978;2023-04-25T14:52:11;3.85;;;2.88;;
27025;SDS011;14565;48.626;8.978;2023-04-25T14:54:39;4.18;;;3.00;;
27025;SDS011;14565;48.626;8.978;2023-04-25T14:57:05;4.28;;;3.25;;
27025;SDS011;14565;48.626;8.978;2023-04-25T14:59:32;3.95;;;2.50;;
27025;SDS011;14565;48.626;8.978;2023-04-25T15:01:58;2.47;;;2.08;;
27025;SDS011;14565;48.626;8.978;2023-04-25T15:04:23;3.17;;;2.55;;
27025;SDS011;14565;48.626;8.978;2023-04-25T15:06:49;2.50;;;1.98;;
27025;SDS011;14565;48.626;8.978;2023-04-25T15:09:15;2.42;;;1.90;;
27025;SDS011;14565;48.626;8.978;2023-04-25T15:11:41;3.10;;;2.50;;
27025;SDS011;14565;48.626;8.978;2023-04-25T15:14:07;3.10;;;2.10;;
27025;SDS011;14565;48.626;8.978;2023-04-25T15:16:33;3.03;;;2.28;;